createdAt,value
2023-04-18T03:47:53.642Z,11.94
2023-04-18T03:50:58.323Z,11.94
2023-04-18T03:54:00.867Z,11.55
2023-04-18T03:57:03.634Z,11.54
2023-04-18T04:00:08.173Z,11.62
2023-04-18T04:03:18.221Z,11.65
2023-04-18T04:06:21.735Z,11.75
2023-04-18T04:09:24.832Z,11.72
2023-04-18T04:12:30.992Z,11.78
2023-04-18T04:15:34.031Z,11.81
2023-04-18T04:18:37.609Z,11.84
2023-04-18T04:21:40.529Z,11.82
2023-04-18T04:24:44.008Z,11.93
2023-04-18T04:27:49.637Z,11.94
2023-04-18T04:30:53.184Z,11.98
2023-04-18T04:33:55.814Z,11.90
2023-04-18T04:37:00.741Z,11.95
2023-04-18T04:40:06.360Z,11.96
2023-04-18T04:43:15.478Z,12.02
2023-04-18T04:46:19.988Z,11.91
2023-04-18T04:49:24.792Z,11.90
2023-04-18T04:52:27.765Z,11.90
2023-04-18T04:55:30.750Z,11.96
2023-04-18T04:58:33.539Z,11.89
2023-04-18T05:01:36.951Z,11.96
2023-04-18T05:04:39.396Z,11.89
2023-04-18T05:07:44.980Z,11.93
2023-04-18T05:10:49.721Z,11.86
2023-04-18T05:13:52.504Z,11.87
2023-04-18T05:16:55.720Z,11.69
2023-04-18T05:19:58.414Z,11.68
2023-04-18T05:23:00.948Z,11.57
2023-04-18T05:26:07.073Z,11.62
2023-04-18T05:29:09.696Z,11.68
2023-04-18T05:32:12.468Z,11.74
2023-04-18T05:35:14.850Z,11.83
2023-04-18T05:38:17.448Z,11.81
2023-04-18T05:41:19.853Z,11.96
2023-04-18T05:44:24.196Z,12.07
2023-04-18T05:47:28.456Z,12.13
2023-04-18T05:50:31.356Z,12.34
2023-04-18T05:53:33.672Z,12.52
2023-04-18T05:56:36.635Z,12.61
2023-04-18T05:59:39.359Z,12.66
2023-04-18T06:02:42.237Z,12.78
2023-04-18T06:05:46.170Z,12.91
2023-04-18T06:08:48.580Z,13.05
2023-04-18T06:11:51.172Z,13.10
2023-04-18T06:14:53.552Z,13.22
2023-04-18T06:17:56.126Z,13.34
2023-04-18T06:20:58.436Z,13.33
2023-04-18T06:24:01.614Z,13.47
2023-04-18T06:27:05.372Z,13.49
2023-04-18T06:30:08.623Z,13.52
2023-04-18T06:33:11.401Z,13.56
2023-04-18T06:36:14.099Z,13.61
2023-04-18T06:39:16.751Z,13.70
2023-04-18T06:42:22.054Z,13.69
2023-04-18T06:45:24.741Z,13.97
2023-04-18T06:48:28.426Z,14.30
2023-04-18T06:51:31.644Z,14.53
2023-04-18T06:54:34.725Z,14.96
2023-04-18T06:57:37.881Z,15.48
2023-04-18T07:00:40.515Z,15.83
2023-04-18T07:03:42.750Z,15.95
2023-04-18T07:06:45.581Z,15.84
2023-04-18T07:09:49.223Z,15.64
2023-04-18T07:12:52.107Z,15.71
2023-04-18T07:15:54.943Z,15.32
2023-04-18T07:18:57.621Z,15.42
2023-04-18T07:22:00.492Z,15.68
2023-04-18T07:25:03.330Z,15.64
2023-04-18T07:28:05.897Z,15.56
2023-04-18T07:31:11.421Z,15.58
2023-04-18T07:34:14.677Z,15.51
2023-04-18T07:37:18.966Z,15.58
2023-04-18T07:40:21.621Z,15.59
2023-04-18T07:43:24.328Z,15.70
2023-04-18T07:46:27.080Z,15.68
2023-04-18T07:49:31.961Z,15.68
2023-04-18T07:52:34.664Z,15.84
2023-04-18T07:55:38.811Z,15.67
2023-04-18T07:58:41.275Z,15.64
2023-04-18T08:01:44.182Z,15.61
2023-04-18T08:04:50.018Z,15.74
2023-04-18T08:07:52.872Z,16.05
2023-04-18T08:10:55.811Z,16.18
2023-04-18T08:13:58.219Z,16.38
2023-04-18T08:17:00.801Z,16.53
2023-04-18T08:20:09.537Z,16.74
2023-04-18T08:23:13.376Z,16.90
2023-04-18T08:26:15.869Z,16.89
2023-04-18T08:29:18.572Z,16.79
2023-04-18T08:32:20.987Z,16.63
2023-04-18T08:35:23.850Z,16.65
2023-04-18T08:38:26.341Z,16.60
2023-04-18T08:41:35.907Z,16.39
2023-04-18T08:44:38.311Z,16.47
2023-04-18T08:47:41.898Z,16.42
2023-04-18T08:50:44.990Z,16.28
2023-04-18T08:53:48.369Z,16.57
2023-04-18T08:57:07.458Z,17.13
2023-04-18T09:00:11.814Z,17.55
2023-04-18T09:03:15.431Z,17.82
2023-04-18T09:06:21.020Z,17.56
2023-04-18T09:09:27.455Z,17.54
2023-04-18T09:12:30.219Z,17.80
2023-04-18T09:15:32.743Z,18.36
2023-04-18T09:18:35.464Z,18.76
2023-04-18T09:21:41.366Z,18.70
2023-04-18T09:24:57.466Z,18.61
2023-04-18T09:28:01.776Z,18.44
2023-04-18T09:31:13.454Z,18.48
2023-04-18T09:34:26.441Z,18.71
2023-04-18T09:37:29.496Z,18.78
2023-04-18T09:40:33.050Z,18.87
2023-04-18T09:43:35.632Z,19.10
2023-04-18T09:46:38.039Z,19.23
2023-04-18T09:49:41.067Z,18.92
2023-04-18T09:52:45.034Z,18.79
2023-04-18T09:55:53.298Z,18.63
2023-04-18T09:59:09.408Z,18.13
2023-04-18T10:02:19.697Z,18.36
2023-04-18T10:05:25.962Z,18.17
2023-04-18T10:08:28.624Z,18.44
2023-04-18T10:11:32.139Z,18.73
2023-04-18T10:14:34.632Z,18.62
2023-04-18T10:18:02.768Z,18.64
2023-04-18T10:21:09.003Z,18.73
2023-04-18T10:24:53.080Z,18.82
2023-04-18T10:27:57.325Z,19.25
2023-04-18T10:31:04.525Z,19.42
2023-04-18T10:34:07.393Z,19.28
2023-04-18T10:37:11.193Z,19.29
2023-04-18T10:40:14.056Z,19.39
2023-04-18T10:43:16.576Z,19.38
2023-04-18T10:46:30.879Z,19.43
2023-04-18T10:49:38.238Z,19.29
2023-04-18T10:52:41.576Z,19.44
2023-04-18T10:55:50.920Z,19.31
2023-04-18T10:58:53.745Z,19.08
2023-04-18T11:01:57.818Z,19.17
2023-04-18T11:05:04.032Z,19.00
2023-04-18T11:08:23.552Z,18.96
2023-04-18T11:11:26.289Z,19.08
2023-04-18T11:14:46.756Z,19.06
2023-04-18T11:17:58.328Z,19.30
2023-04-18T11:21:03.745Z,19.21
2023-04-18T11:24:06.387Z,19.25
2023-04-18T11:27:11.138Z,19.25
2023-04-18T11:30:15.181Z,19.28
2023-04-18T11:33:17.927Z,19.28
2023-04-18T11:36:20.700Z,19.05
2023-04-18T11:39:24.182Z,18.95
2023-04-18T11:42:33.309Z,18.93
2023-04-18T11:45:36.154Z,19.07
2023-04-18T11:48:40.591Z,19.10
2023-04-18T11:51:46.227Z,18.96
2023-04-18T11:54:48.684Z,19.20
2023-04-18T11:57:55.954Z,19.17
2023-04-18T12:00:58.992Z,19.11
2023-04-18T12:04:08.022Z,19.02
2023-04-18T12:07:10.667Z,18.91
2023-04-18T12:10:22.308Z,18.63
2023-04-18T12:13:26.809Z,18.65
2023-04-18T12:16:30.695Z,18.69
2023-04-18T12:19:34.319Z,18.63
2023-04-18T12:22:49.523Z,18.72
2023-04-18T12:25:59.985Z,19.04
2023-04-18T12:29:03.579Z,19.47
2023-04-18T12:32:06.356Z,19.53
2023-04-18T12:35:09.690Z,19.77
2023-04-18T12:38:25.837Z,19.72
2023-04-18T12:41:32.380Z,19.47
2023-04-18T12:44:34.832Z,19.13
2023-04-18T12:47:42.546Z,19.12
2023-04-18T12:50:45.184Z,18.98
2023-04-18T12:53:47.853Z,18.90
2023-04-18T12:56:50.571Z,18.88
2023-04-18T12:59:53.227Z,18.80
2023-04-18T13:02:56.501Z,18.72
2023-04-18T13:05:59.616Z,18.80
2023-04-18T13:09:02.026Z,18.80
2023-04-18T13:12:05.149Z,18.66
2023-04-18T13:15:08.556Z,18.72
2023-04-18T13:18:11.372Z,18.61
2023-04-18T13:21:13.740Z,18.39
2023-04-18T13:24:16.552Z,18.66
2023-04-18T13:27:19.247Z,18.93
2023-04-18T13:30:21.930Z,19.13
2023-04-18T13:33:24.314Z,19.17
2023-04-18T13:36:27.692Z,19.08
2023-04-18T13:39:33.156Z,19.24
2023-04-18T13:42:38.585Z,19.39
2023-04-18T13:45:41.296Z,19.46
2023-04-18T13:48:44.071Z,19.56
2023-04-18T13:51:46.580Z,19.35
2023-04-18T13:54:49.338Z,19.32
2023-04-18T13:57:51.898Z,19.17
2023-04-18T14:00:54.675Z,18.82
2023-04-18T14:03:57.792Z,18.68
2023-04-18T14:07:02.022Z,18.97
2023-04-18T14:10:05.129Z,19.03
2023-04-18T14:13:07.600Z,18.93
2023-04-18T14:16:10.199Z,18.99
2023-04-18T14:19:12.664Z,19.12
2023-04-18T14:22:15.656Z,19.20
2023-04-18T14:25:18.157Z,19.29
2023-04-18T14:28:23.607Z,19.27
2023-04-18T14:31:28.018Z,19.27
2023-04-18T14:34:32.677Z,19.28
2023-04-18T14:37:36.017Z,19.24
2023-04-18T14:40:38.593Z,19.29
2023-04-18T14:43:41.002Z,19.25
2023-04-18T14:46:43.699Z,19.29
2023-04-18T14:49:46.198Z,19.19
2023-04-18T14:52:48.877Z,19.21
2023-04-18T14:55:51.366Z,19.24
2023-04-18T14:58:53.976Z,19.12
2023-04-18T15:01:56.409Z,18.75
2023-04-18T15:04:59.518Z,18.69
2023-04-18T15:08:01.920Z,18.45
2023-04-18T15:11:08.122Z,18.59
2023-04-18T15:14:10.633Z,18.76
2023-04-18T15:17:13.252Z,18.80
2023-04-18T15:20:16.099Z,18.86
2023-04-18T15:23:18.877Z,18.77
2023-04-18T15:26:21.208Z,18.67
2023-04-18T15:29:23.964Z,18.57
2023-04-18T15:32:26.570Z,18.53
2023-04-18T15:35:29.499Z,18.68
2023-04-18T15:38:32.968Z,18.61
2023-04-18T15:41:36.930Z,18.61
2023-04-18T15:44:39.673Z,18.57
2023-04-18T15:47:42.418Z,18.63
2023-04-18T15:50:50.958Z,18.40
2023-04-18T15:53:54.164Z,18.28
